地図

経路データ

SID SEASON NUMBER BASIN SUBBASIN NAME ISO_TIME NATURE LAT LON WMO_WIND WMO_PRES WMO_AGENCY TRACK_TYPE DIST2LAND LANDFALL IFLAG USA_AGENCY USA_ATCF_ID USA_LAT USA_LON USA_RECORD USA_STATUS USA_WIND USA_PRES USA_SSHS USA_R34_NE USA_R34_SE USA_R34_SW USA_R34_NW USA_R50_NE USA_R50_SE USA_R50_SW USA_R50_NW USA_R64_NE USA_R64_SE USA_R64_SW USA_R64_NW USA_POCI USA_ROCI USA_RMW USA_EYE TOKYO_LAT TOKYO_LON TOKYO_GRADE TOKYO_WIND TOKYO_PRES TOKYO_R50_DIR TOKYO_R50_LONG TOKYO_R50_SHORT TOKYO_R30_DIR TOKYO_R30_LONG TOKYO_R30_SHORT TOKYO_LAND CMA_LAT CMA_LON CMA_CAT CMA_WIND CMA_PRES HKO_LAT HKO_LON HKO_CAT HKO_WIND HKO_PRES NEWDELHI_LAT NEWDELHI_LON NEWDELHI_GRADE NEWDELHI_WIND NEWDELHI_PRES NEWDELHI_CI NEWDELHI_DP NEWDELHI_POCI REUNION_LAT REUNION_LON REUNION_TYPE REUNION_WIND REUNION_PRES REUNION_TNUM REUNION_CI REUNION_RMW REUNION_R34_NE REUNION_R34_SE REUNION_R34_SW REUNION_R34_NW REUNION_R50_NE REUNION_R50_SE REUNION_R50_SW REUNION_R50_NW REUNION_R64_NE REUNION_R64_SE REUNION_R64_SW REUNION_R64_NW BOM_LAT BOM_LON BOM_TYPE BOM_WIND BOM_PRES BOM_TNUM BOM_CI BOM_RMW BOM_R34_NE BOM_R34_SE BOM_R34_SW BOM_R34_NW BOM_R50_NE BOM_R50_SE BOM_R50_SW BOM_R50_NW BOM_R64_NE BOM_R64_SE BOM_R64_SW BOM_R64_NW BOM_ROCI BOM_POCI BOM_EYE BOM_POS_METHOD BOM_PRES_METHOD NADI_LAT NADI_LON NADI_CAT NADI_WIND NADI_PRES WELLINGTON_LAT WELLINGTON_LON WELLINGTON_WIND WELLINGTON_PRES DS824_LAT DS824_LON DS824_STAGE DS824_WIND DS824_PRES TD9636_LAT TD9636_LON TD9636_STAGE TD9636_WIND TD9636_PRES TD9635_LAT TD9635_LON TD9635_WIND TD9635_PRES TD9635_ROCI NEUMANN_LAT NEUMANN_LON NEUMANN_CLASS NEUMANN_WIND NEUMANN_PRES MLC_LAT MLC_LON MLC_CLASS MLC_WIND MLC_PRES USA_GUST BOM_GUST BOM_GUST_PER REUNION_GUST REUNION_GUST_PER USA_SEAHGT USA_SEARAD_NE USA_SEARAD_SE USA_SEARAD_SW USA_SEARAD_NW STORM_SPEED STORM_DIR
1905278N23271 1905 48 NA GM NOT_NAMED 1905-10-05 06:00:00 TS 23.0000 -88.9000 35 hurdat_atl main 170 170 O_____________ hurdat_atl AL051905 23.0000 -88.9000 TS 35 0 6 271
1905278N23271 1905 48 NA GM NOT_NAMED 1905-10-05 09:00:00 TS 23.0027 -89.2225 main 178 178 P_____________ AL051905 23.0027 -89.2225 TS 37 0 6 270
1905278N23271 1905 48 NA GM NOT_NAMED 1905-10-05 12:00:00 TS 23.0000 -89.5000 40 hurdat_atl main 191 191 O_____________ hurdat_atl AL051905 23.0000 -89.5000 TS 40 0 4 269
1905278N23271 1905 48 NA GM NOT_NAMED 1905-10-05 15:00:00 TS 22.9924 -89.7075 main 194 194 P_____________ AL051905 22.9924 -89.7075 TS 40 0 4 270
1905278N23271 1905 48 NA GM NOT_NAMED 1905-10-05 18:00:00 TS 23.0000 -89.9000 40 hurdat_atl main 199 199 O_____________ hurdat_atl AL051905 23.0000 -89.9000 TS 40 0 4 276
1905278N23271 1905 48 NA GM NOT_NAMED 1905-10-05 21:00:00 TS 23.0350 -90.1500 main 203 203 P_____________ AL051905 23.0350 -90.1500 TS 40 0 5 282
1905278N23271 1905 48 NA GM NOT_NAMED 1905-10-06 00:00:00 TS 23.1000 -90.4000 40 hurdat_atl main 218 218 O_____________ hurdat_atl AL051905 23.1000 -90.4000 TS 40 0 5 289
1905278N23271 1905 48 NA GM NOT_NAMED 1905-10-06 03:00:00 TS 23.1850 -90.6150 main 234 234 P_____________ AL051905 23.1850 -90.6150 TS 40 0 4 299
1905278N23271 1905 48 NA GM NOT_NAMED 1905-10-06 06:00:00 TS 23.3000 -90.8000 40 hurdat_atl main 251 251 O_____________ hurdat_atl AL051905 23.3000 -90.8000 TS 40 0 4 310
1905278N23271 1905 48 NA GM NOT_NAMED 1905-10-06 09:00:00 TS 23.4349 -90.9426 main 264 264 P_____________ AL051905 23.4349 -90.9426 TS 40 0 4 318
1905278N23271 1905 48 NA GM NOT_NAMED 1905-10-06 12:00:00 TS 23.6000 -91.1000 40 hurdat_atl main 291 291 O_____________ hurdat_atl AL051905 23.6000 -91.1000 TS 40 0 5 314
1905278N23271 1905 48 NA GM NOT_NAMED 1905-10-06 15:00:00 TS 23.7926 -91.3424 main 318 318 P_____________ AL051905 23.7926 -91.3424 TS 40 0 6 311
1905278N23271 1905 48 NA GM NOT_NAMED 1905-10-06 18:00:00 TS 24.0000 -91.6000 40 hurdat_atl main 350 350 O_____________ hurdat_atl AL051905 24.0000 -91.6000 TS 40 0 6 313
1905278N23271 1905 48 NA GM NOT_NAMED 1905-10-06 21:00:00 TS 24.1924 -91.8076 main 379 379 P_____________ AL051905 24.1924 -91.8076 TS 40 0 5 318
1905278N23271 1905 48 NA GM NOT_NAMED 1905-10-07 00:00:00 TS 24.4000 -92.0000 40 hurdat_atl main 407 407 O_____________ hurdat_atl AL051905 24.4000 -92.0000 TS 40 0 6 321
1905278N23271 1905 48 NA GM NOT_NAMED 1905-10-07 03:00:00 TS 24.6575 -92.2149 main 446 446 P_____________ AL051905 24.6575 -92.2149 TS 40 0 6 324
1905278N23271 1905 48 NA GM NOT_NAMED 1905-10-07 06:00:00 TS 24.9000 -92.4000 40 hurdat_atl main 475 474 O_____________ hurdat_atl AL051905 24.9000 -92.4000 TS 40 0 5 325
1905278N23271 1905 48 NA GM NOT_NAMED 1905-10-07 09:00:00 TS 25.0575 -92.5226 main 471 459 P_____________ AL051905 25.0575 -92.5226 TS 40 0 4 329
1905278N23271 1905 48 NA GM NOT_NAMED 1905-10-07 12:00:00 TS 25.2000 -92.6000 40 hurdat_atl main 459 445 O_____________ hurdat_atl AL051905 25.2000 -92.6000 TS 40 0 4 340
1905278N23271 1905 48 NA GM NOT_NAMED 1905-10-07 15:00:00 TS 25.4075 -92.6650 main 445 429 P_____________ AL051905 25.4075 -92.6650 TS 40 0 4 348
1905278N23271 1905 48 NA GM NOT_NAMED 1905-10-07 18:00:00 TS 25.6000 -92.7000 40 hurdat_atl main 429 419 O_____________ hurdat_atl AL051905 25.6000 -92.7000 TS 40 0 3 354
1905278N23271 1905 48 NA GM NOT_NAMED 1905-10-07 21:00:00 TS 25.7150 -92.7150 main 419 408 P_____________ AL051905 25.7150 -92.7150 TS 42 0 2 8
1905278N23271 1905 48 NA GM NOT_NAMED 1905-10-08 00:00:00 TS 25.8000 -92.7000 45 hurdat_atl main 408 398 O_____________ hurdat_atl AL051905 25.8000 -92.7000 TS 45 0 2 17
1905278N23271 1905 48 NA GM NOT_NAMED 1905-10-08 03:00:00 TS 25.8925 -92.6575 main 398 384 P_____________ AL051905 25.8925 -92.6575 TS 45 0 2 25
1905278N23271 1905 48 NA GM NOT_NAMED 1905-10-08 06:00:00 TS 26.0000 -92.6000 45 hurdat_atl main 384 374 O_____________ hurdat_atl AL051905 26.0000 -92.6000 TS 45 0 3 22
1905278N23271 1905 48 NA GM NOT_NAMED 1905-10-08 09:00:00 TS 26.1350 -92.5500 main 370 350 P_____________ AL051905 26.1350 -92.5500 TS 45 0 3 16
1905278N23271 1905 48 NA GM NOT_NAMED 1905-10-08 12:00:00 TS 26.3000 -92.5000 45 hurdat_atl main 350 330 O_____________ hurdat_atl AL051905 26.3000 -92.5000 TS 45 0 4 15
1905278N23271 1905 48 NA GM NOT_NAMED 1905-10-08 15:00:00 TS 26.4775 -92.4500 main 325 305 P_____________ AL051905 26.4775 -92.4500 TS 45 0 4 12
1905278N23271 1905 48 NA GM NOT_NAMED 1905-10-08 18:00:00 TS 26.7000 -92.4000 45 hurdat_atl main 305 276 O_____________ hurdat_atl AL051905 26.7000 -92.4000 TS 45 0 5 10
1905278N23271 1905 48 NA GM NOT_NAMED 1905-10-08 21:00:00 TS 26.9775 -92.3500 main 271 242 P_____________ AL051905 26.9775 -92.3500 TS 45 0 6 8
1905278N23271 1905 48 NA GM NOT_NAMED 1905-10-09 00:00:00 TS 27.3000 -92.3000 45 hurdat_atl main 242 212 O_____________ hurdat_atl AL051905 27.3000 -92.3000 TS 45 0 7 6
1905278N23271 1905 48 NA GM NOT_NAMED 1905-10-09 03:00:00 TS 27.6425 -92.2574 main 212 167 P_____________ AL051905 27.6425 -92.2574 TS 45 0 7 7
1905278N23271 1905 48 NA GM NOT_NAMED 1905-10-09 06:00:00 TS 28.0000 -92.2000 45 hurdat_atl main 167 134 O_____________ hurdat_atl AL051905 28.0000 -92.2000 TS 45 0 7 8
1905278N23271 1905 48 NA GM NOT_NAMED 1905-10-09 09:00:00 TS 28.3284 -92.1496 main 135 93 P_____________ AL051905 28.3284 -92.1496 TS 45 0 7 14
1905278N23271 1905 48 NA GM NOT_NAMED 1905-10-09 12:00:00 TS 28.7000 -92.0000 45 hurdat_atl main 93 34 O_____________ hurdat_atl AL051905 28.7000 -92.0000 TS 45 0 10 27
1905278N23271 1905 48 NA GM NOT_NAMED 1905-10-09 15:00:00 TS 29.2130 -91.6454 main 33 0 P_____________ AL051905 29.2130 -91.6454 TS 45 0 12 33
1905278N23271 1905 48 NA GM NOT_NAMED 1905-10-09 17:00:00 TS 29.5000 -91.4000 45 hurdat_atl main 0 0 O_____________ hurdat_atl AL051905 29.5000 -91.4000 L TS 45 0 10 38
1905278N23271 1905 48 NA NA NOT_NAMED 1905-10-09 18:00:00 TS 29.6000 -91.3000 40 hurdat_atl main 0 0 O_____________ hurdat_atl AL051905 29.6000 -91.3000 TS 40 0 11 36
1905278N23271 1905 48 NA NA NOT_NAMED 1905-10-09 21:00:00 TS 30.0706 -90.9212 main 0 0 P_____________ AL051905 30.0706 -90.9212 TS 37 0 13 32
1905278N23271 1905 48 NA NA NOT_NAMED 1905-10-10 00:00:00 TS 30.7000 -90.5000 35 hurdat_atl main 0 0 O_____________ hurdat_atl AL051905 30.7000 -90.5000 TS 35 0 14 27
1905278N23271 1905 48 NA NA NOT_NAMED 1905-10-10 03:00:00 TS 31.3196 -90.1712 main 0 0 P_____________ AL051905 31.3196 -90.1712 TS 32 -1 14 25
1905278N23271 1905 48 NA NA NOT_NAMED 1905-10-10 06:00:00 ET 32.0000 -89.8000 30 hurdat_atl main 0 0 O_____________ hurdat_atl AL051905 32.0000 -89.8000 EX 30 -4 16 26
1905278N23271 1905 48 NA NA NOT_NAMED 1905-10-10 09:00:00 ET 32.7562 -89.3610 main 0 0 P_____________ AL051905 32.7562 -89.3610 EX 27 -4 18 32
1905278N23271 1905 48 NA NA NOT_NAMED 1905-10-10 12:00:00 ET 33.5000 -88.7000 25 hurdat_atl main 0 0 O_____________ hurdat_atl AL051905 33.5000 -88.7000 EX 25 -4 20 45
1905278N23271 1905 48 NA NA NOT_NAMED 1905-10-10 15:00:00 ET 34.1458 -87.6830 main 0 0 P_____________ AL051905 34.1458 -87.6830 EX 25 -4 22 57
1905278N23271 1905 48 NA NA NOT_NAMED 1905-10-10 18:00:00 ET 34.7000 -86.5000 25 hurdat_atl main 0 0 O_____________ hurdat_atl AL051905 34.7000 -86.5000 EX 25 -4 22 61
1905278N23271 1905 48 NA NA NOT_NAMED 1905-10-10 21:00:00 ET 35.1796 -85.3761 main 0 0 P_____________ AL051905 35.1796 -85.3761 EX 25 -4 20 63
1905278N23271 1905 48 NA NA NOT_NAMED 1905-10-11 00:00:00 ET 35.6000 -84.3000 25 hurdat_atl main 0 0 O_____________ hurdat_atl AL051905 35.6000 -84.3000 EX 25 -4 18 63
1905278N23271 1905 48 NA NA NOT_NAMED 1905-10-11 03:00:00 ET 35.9977 -83.3625 main 0 0 P_____________ AL051905 35.9977 -83.3625 EX 25 -4 17 63
1905278N23271 1905 48 NA NA NOT_NAMED 1905-10-11 06:00:00 ET 36.4000 -82.4000 25 hurdat_atl main 0 0 O_____________ hurdat_atl AL051905 36.4000 -82.4000 EX 25 -4 19 64
1905278N23271 1905 48 NA NA NOT_NAMED 1905-10-11 09:00:00 ET 36.8201 -81.2286 main 0 0 P_____________ AL051905 36.8201 -81.2286 EX 25 -4 21 65
1905278N23271 1905 48 NA NA NOT_NAMED 1905-10-11 12:00:00 ET 37.3000 -80.0000 25 hurdat_atl main 0 0 O_____________ hurdat_atl AL051905 37.3000 -80.0000 EX 25 -4 22 61
1905278N23271 1905 48 NA NA NOT_NAMED 1905-10-11 15:00:00 ET 37.8739 -78.8316 main 0 0 P_____________ AL051905 37.8739 -78.8316 EX 25 -4 22 57
1905278N23271 1905 48 NA NA NOT_NAMED 1905-10-11 18:00:00 ET 38.5000 -77.7000 25 hurdat_atl main 0 O_____________ hurdat_atl AL051905 38.5000 -77.7000 EX 25 -4 22 55

IBTrACS Databaseについて

本データベースは、米国NOAAが公開する1842年以降の世界の熱帯低気圧のベストトラックデータアーカイブInternational Best Track Archive for Climate Stewardship (IBTrACS)を、ウェブで閲覧しやすい形式に変換したものです。

最終更新日:2021-11-26